EGNM/LBA METAR and TAF weather

Enter ICAO airport designator
Station Type Date Time Source
EGNM METAR 2018/07/21 12:50 UTC NOAA

EGNM 211250Z 27008KT 240V310 9999 FEW019 BKN023 18/13 Q1015


Station Type Date Time Source
EGNM Decoded METAR 2018/07/21 12:50 UTC NOAA

Leeds And Bradford, United Kingdom (EGNM) 53-52N 001-39W
Jul 21, 2018 - 08:50 AM EDT / 2018.07.21 1250 UTC
Wind: from the W (270 degrees) at 9 MPH (8 KT) (direction variable):0
Visibility: greater than 7 mile(s):0
Sky conditions: mostly cloudy
Temperature: 64 F (18 C)
Dew Point: 55 F (13 C)
Relative Humidity: 72%
Pressure (altimeter): 29.97 in. Hg (1015 hPa)
ob: EGNM 211250Z 27008KT 240V310 9999 FEW019 BKN023 18/13 Q1015
cycle: 13

Station Type Date Time Source
EGNM TAF 2018/07/21 12:15 UTC NOAA

TAF TAF EGNM 211057Z 2112/2212 28005KT 9999 SCT020
TEMPO 2112/2124 27015KT PROB30
TEMPO 2112/2115 BKN012 PROB40
TEMPO 2200/2210 8000 BKN008


Example: see airport list